createdAt,value
2022-09-03T00:02:45.821Z,2.90
2022-09-03T00:05:17.084Z,2.60
2022-09-03T00:08:23.319Z,2.75
2022-09-03T00:11:13.333Z,2.47
2022-09-03T00:13:49.706Z,2.50
2022-09-03T00:16:22.014Z,2.30
2022-09-03T00:18:55.903Z,2.50
2022-09-03T00:21:38.246Z,2.60
2022-09-03T00:24:14.048Z,2.80
2022-09-03T00:26:45.413Z,2.95
2022-09-03T00:29:53.442Z,2.80
2022-09-03T00:32:47.206Z,2.17
2022-09-03T00:35:38.969Z,2.72
2022-09-03T00:38:06.398Z,2.30
2022-09-03T00:40:57.377Z,2.40
2022-09-03T00:44:05.348Z,2.38
2022-09-03T00:46:37.914Z,2.47
2022-09-03T00:49:26.906Z,2.17
2022-09-03T00:51:53.366Z,2.50
2022-09-03T00:54:47.707Z,2.20
2022-09-03T00:57:44.278Z,2.50
2022-09-03T01:00:17.025Z,2.50
2022-09-03T01:03:07.098Z,2.40
2022-09-03T01:06:07.295Z,2.42
2022-09-03T01:09:05.480Z,2.88
2022-09-03T01:11:59.685Z,2.65
2022-09-03T01:14:46.570Z,2.67
2022-09-03T01:17:59.594Z,2.80
2022-09-03T01:20:45.645Z,2.92
2022-09-03T01:23:37.240Z,2.95
2022-09-03T01:26:11.257Z,3.08
2022-09-03T01:28:46.854Z,2.97
2022-09-03T01:31:37.641Z,2.80
2022-09-03T01:34:16.383Z,3.40
2022-09-03T01:36:45.562Z,2.50
2022-09-03T01:39:26.697Z,2.75
2022-09-03T01:42:32.601Z,2.75
2022-09-03T01:45:21.762Z,2.28
2022-09-03T01:48:07.005Z,2.83
2022-09-03T01:51:16.355Z,2.40
2022-09-03T01:53:52.558Z,2.63
2022-09-03T01:56:40.852Z,2.35
2022-09-03T02:00:04.996Z,2.47
2022-09-03T02:02:35.537Z,2.72
2022-09-03T02:05:19.689Z,2.80
2022-09-03T02:07:56.193Z,2.33
2022-09-03T02:10:30.462Z,2.70
2022-09-03T02:13:26.096Z,2.60
2022-09-03T02:15:57.128Z,2.35
2022-09-03T02:18:31.358Z,2.22
2022-09-03T02:21:00.639Z,2.22
2022-09-03T02:23:28.716Z,2.17
2022-09-03T02:26:01.712Z,1.77
2022-09-03T02:28:30.744Z,2.03
2022-09-03T02:30:57.980Z,2.08
2022-09-03T02:33:25.020Z,2.38
2022-09-03T02:35:52.445Z,1.90
2022-09-03T02:38:22.627Z,1.90
2022-09-03T02:40:49.318Z,1.98
2022-09-03T02:43:42.094Z,2.05
2022-09-03T02:46:18.302Z,2.35
2022-09-03T02:48:44.955Z,2.50
2022-09-03T02:51:13.754Z,1.85
2022-09-03T02:53:42.013Z,2.45
2022-09-03T02:56:08.577Z,2.20
2022-09-03T02:58:40.928Z,2.03
2022-09-03T03:01:07.555Z,2.28
2022-09-03T03:03:34.180Z,2.05
2022-09-03T03:06:03.416Z,2.08
2022-09-03T03:08:30.438Z,2.15
2022-09-03T03:10:59.007Z,2.08
2022-09-03T03:13:30.141Z,2.10
2022-09-03T03:16:01.017Z,2.22
2022-09-03T03:18:29.103Z,1.80
2022-09-03T03:20:55.932Z,2.08
2022-09-03T03:23:24.686Z,2.17
2022-09-03T03:25:51.191Z,1.98
2022-09-03T03:28:20.606Z,2.10
2022-09-03T03:30:49.046Z,1.90
2022-09-03T03:33:18.909Z,2.03
2022-09-03T03:35:45.432Z,2.03
2022-09-03T03:38:12.223Z,2.22
2022-09-03T03:40:39.908Z,2.00
2022-09-03T03:43:08.746Z,1.90
2022-09-03T03:45:35.327Z,2.33
2022-09-03T03:48:02.160Z,2.10
2022-09-03T03:50:28.782Z,2.22
2022-09-03T03:53:02.490Z,1.80
2022-09-03T03:55:29.055Z,1.85
2022-09-03T03:58:01.665Z,2.00
2022-09-03T04:00:28.221Z,2.25
2022-09-03T04:02:54.948Z,1.90
2022-09-03T04:05:23.235Z,1.90
2022-09-03T04:07:50.662Z,1.90
2022-09-03T04:10:19.531Z,2.30
2022-09-03T04:12:46.407Z,2.17
2022-09-03T04:15:12.974Z,2.17
2022-09-03T04:17:39.838Z,2.08
2022-09-03T04:20:06.689Z,1.77
2022-09-03T04:22:33.993Z,1.90
2022-09-03T04:25:00.788Z,1.70
2022-09-03T04:27:27.353Z,2.22
2022-09-03T04:29:53.929Z,1.88
2022-09-03T04:32:38.918Z,1.92
2022-09-03T04:35:05.850Z,2.00
2022-09-03T04:37:32.707Z,2.47
2022-09-03T04:39:59.265Z,2.20
2022-09-03T04:42:25.896Z,2.00
2022-09-03T04:44:52.401Z,2.05
2022-09-03T04:47:19.029Z,2.08
2022-09-03T04:49:47.994Z,2.05
2022-09-03T04:52:14.599Z,2.78
2022-09-03T04:54:41.160Z,1.92
2022-09-03T04:57:07.794Z,2.38
2022-09-03T04:59:34.314Z,2.10
2022-09-03T05:02:00.912Z,2.00
2022-09-03T05:04:27.944Z,1.80
2022-09-03T05:06:54.584Z,2.03
2022-09-03T05:09:21.521Z,1.98
2022-09-03T05:11:48.042Z,2.17
2022-09-03T05:14:14.635Z,2.05
2022-09-03T05:16:41.272Z,2.10
2022-09-03T05:19:08.175Z,2.10
2022-09-03T05:21:36.180Z,2.35
2022-09-03T05:24:05.417Z,2.65
2022-09-03T05:26:37.162Z,2.47
2022-09-03T05:29:07.856Z,2.20
2022-09-03T05:31:37.189Z,2.33
2022-09-03T05:34:04.858Z,2.60
2022-09-03T05:36:36.961Z,2.20
2022-09-03T05:39:05.190Z,2.00
2022-09-03T05:41:34.310Z,2.17
2022-09-03T05:44:01.043Z,2.30
2022-09-03T05:46:32.413Z,2.17
2022-09-03T05:49:06.247Z,2.30
2022-09-03T05:51:34.320Z,2.45
2022-09-03T05:54:01.675Z,2.50
2022-09-03T05:56:31.136Z,2.65
2022-09-03T05:59:05.511Z,2.63
2022-09-03T06:01:34.927Z,2.28
2022-09-03T06:04:05.990Z,2.20
2022-09-03T06:06:34.806Z,2.28
2022-09-03T06:09:10.827Z,2.13
2022-09-03T06:11:39.220Z,1.95
2022-09-03T06:14:08.590Z,2.10
2022-09-03T06:16:38.941Z,1.83
2022-09-03T06:19:10.991Z,2.40
2022-09-03T06:21:42.852Z,2.15
2022-09-03T06:24:17.726Z,2.28
2022-09-03T06:26:46.702Z,2.03
2022-09-03T06:29:13.781Z,2.17
2022-09-03T06:31:40.669Z,2.08
2022-09-03T06:34:07.547Z,1.90
2022-09-03T06:36:34.643Z,2.25
2022-09-03T06:39:01.590Z,2.13
2022-09-03T06:41:35.461Z,1.90
2022-09-03T06:44:11.239Z,1.83
2022-09-03T06:46:44.175Z,2.08
2022-09-03T06:49:11.948Z,1.88
2022-09-03T06:51:39.153Z,2.08
2022-09-03T06:54:10.872Z,1.90
2022-09-03T06:56:40.822Z,2.30
2022-09-03T06:59:11.965Z,1.88
2022-09-03T07:01:43.567Z,2.28
2022-09-03T07:04:12.805Z,2.00
2022-09-03T07:06:42.046Z,2.15
2022-09-03T07:09:10.128Z,1.88
2022-09-03T07:11:37.255Z,1.95
2022-09-03T07:14:05.025Z,2.03
2022-09-03T07:16:37.128Z,1.73
2022-09-03T07:19:06.099Z,2.10
2022-09-03T07:21:34.200Z,2.03
2022-09-03T07:24:00.927Z,1.60
2022-09-03T07:26:31.230Z,2.53
2022-09-03T07:28:59.028Z,1.80
2022-09-03T07:31:30.027Z,1.60
2022-09-03T07:34:01.095Z,2.00
2022-09-03T07:36:29.308Z,1.85
2022-09-03T07:39:01.997Z,1.48
2022-09-03T07:41:31.474Z,1.70
2022-09-03T07:43:58.079Z,1.35
2022-09-03T07:46:29.731Z,1.70
2022-09-03T07:48:57.972Z,1.58
2022-09-03T07:51:27.792Z,2.03
2022-09-03T07:53:59.030Z,1.85
2022-09-03T07:56:27.107Z,1.60
2022-09-03T07:58:56.390Z,1.85
2022-09-03T08:01:24.791Z,1.70
2022-09-03T08:03:53.440Z,1.70
2022-09-03T08:06:23.389Z,1.95
2022-09-03T08:08:59.705Z,1.75
2022-09-03T08:11:31.389Z,1.83
2022-09-03T08:14:03.420Z,1.63
2022-09-03T08:16:32.413Z,1.70
2022-09-03T08:18:59.486Z,1.67
2022-09-03T08:21:27.592Z,1.42
2022-09-03T08:24:02.400Z,1.35
2022-09-03T08:26:37.148Z,1.50
2022-09-03T08:29:04.615Z,1.70
2022-09-03T08:31:32.888Z,1.80
2022-09-03T08:34:06.676Z,2.00
2022-09-03T08:36:36.412Z,1.80
2022-09-03T08:39:09.584Z,2.00
2022-09-03T08:41:57.798Z,2.78
2022-09-03T08:44:30.321Z,2.15
2022-09-03T08:47:20.747Z,1.98
2022-09-03T08:49:55.718Z,1.65
2022-09-03T08:52:22.191Z,1.65
2022-09-03T08:54:51.160Z,1.73
2022-09-03T08:57:20.871Z,1.50
2022-09-03T08:59:52.819Z,2.40
2022-09-03T09:02:19.373Z,1.75
2022-09-03T09:05:15.343Z,1.60
2022-09-03T09:08:09.253Z,1.80
2022-09-03T09:10:52.764Z,1.60
2022-09-03T09:13:36.754Z,2.65
2022-09-03T09:16:47.342Z,1.70
2022-09-03T09:19:59.623Z,1.40
2022-09-03T09:22:39.541Z,8.35
2022-09-03T09:25:14.513Z,2.28
2022-09-03T09:27:52.178Z,2.17
2022-09-03T09:30:19.783Z,1.85
2022-09-03T09:32:47.341Z,1.38
2022-09-03T09:35:17.066Z,1.60
2022-09-03T09:37:57.498Z,1.55
2022-09-03T09:40:41.465Z,1.77
2022-09-03T09:43:16.084Z,2.17
2022-09-03T09:45:45.201Z,1.80
2022-09-03T09:48:31.749Z,1.77
2022-09-03T09:51:13.690Z,2.03
2022-09-03T09:53:41.421Z,1.77
2022-09-03T09:56:10.661Z,1.92
2022-09-03T09:58:40.068Z,1.80
2022-09-03T10:01:20.752Z,1.65
2022-09-03T10:03:58.127Z,1.67
2022-09-03T10:06:49.645Z,1.55
2022-09-03T10:09:19.315Z,1.40
2022-09-03T10:11:50.906Z,1.60
2022-09-03T10:14:23.108Z,1.70
2022-09-03T10:17:00.866Z,1.52
2022-09-03T10:20:27.337Z,2.03
2022-09-03T10:23:06.205Z,1.73
2022-09-03T10:25:47.921Z,1.83
2022-09-03T10:28:14.464Z,1.83
2022-09-03T10:31:01.600Z,1.55
2022-09-03T10:33:37.934Z,2.00
2022-09-03T10:36:47.990Z,1.40
2022-09-03T10:39:30.066Z,1.90
2022-09-03T10:42:27.216Z,1.77
2022-09-03T10:45:28.915Z,1.60
2022-09-03T10:48:07.886Z,1.33
2022-09-03T10:50:46.558Z,1.90
2022-09-03T10:53:31.292Z,1.85
2022-09-03T10:56:15.382Z,1.70
2022-09-03T10:58:54.155Z,1.90
2022-09-03T11:01:35.146Z,1.60
2022-09-03T11:04:19.913Z,1.30
2022-09-03T11:06:53.043Z,1.60
2022-09-03T11:09:31.756Z,2.17
2022-09-03T11:12:10.216Z,1.83
2022-09-03T11:14:53.891Z,1.90
2022-09-03T11:17:34.168Z,1.30
2022-09-03T11:20:03.629Z,2.40
2022-09-03T11:22:31.553Z,1.33
2022-09-03T11:25:01.130Z,1.30
2022-09-03T11:27:36.061Z,1.63
2022-09-03T11:30:09.742Z,1.27
2022-09-03T11:32:36.241Z,1.45
2022-09-03T11:35:14.654Z,1.40
2022-09-03T11:38:14.663Z,1.40
2022-09-03T11:40:56.870Z,1.33
2022-09-03T11:43:35.887Z,1.67
2022-09-03T11:46:24.546Z,1.65
2022-09-03T11:48:53.216Z,1.38
2022-09-03T11:51:32.986Z,1.20
2022-09-03T11:54:01.322Z,1.42
2022-09-03T11:56:30.053Z,1.55
2022-09-03T11:59:19.762Z,1.50
2022-09-03T12:02:01.668Z,1.27
2022-09-03T12:05:11.150Z,1.50
2022-09-03T12:08:18.247Z,1.30
2022-09-03T12:11:24.397Z,1.33
2022-09-03T12:14:16.653Z,1.30
2022-09-03T12:17:09.269Z,1.20
2022-09-03T12:20:01.939Z,1.30
2022-09-03T12:22:32.771Z,1.40
2022-09-03T12:25:13.521Z,1.33
2022-09-03T12:27:44.201Z,1.30
2022-09-03T12:30:21.504Z,1.33
2022-09-03T12:32:51.869Z,1.20
2022-09-03T12:38:18.298Z,1.20
2022-09-03T12:43:49.799Z,1.40
2022-09-03T12:46:17.791Z,1.33
2022-09-03T12:51:56.043Z,1.55
2022-09-03T12:54:25.345Z,1.05
2022-09-03T12:57:00.227Z,1.20
2022-09-03T12:59:35.035Z,1.38
2022-09-03T13:02:12.374Z,1.10
2022-09-03T13:04:40.525Z,1.42
2022-09-03T13:07:14.458Z,1.40
2022-09-03T13:09:42.293Z,1.20
2022-09-03T13:12:21.549Z,1.00
2022-09-03T13:14:52.672Z,1.20
2022-09-03T13:17:47.235Z,1.15
2022-09-03T13:20:38.710Z,1.17
2022-09-03T13:23:32.712Z,1.15
2022-09-03T13:26:14.785Z,1.13
2022-09-03T13:28:50.513Z,1.13
2022-09-03T13:31:45.101Z,1.55
2022-09-03T13:34:24.760Z,1.30
2022-09-03T13:36:58.885Z,1.58
2022-09-03T13:39:35.407Z,1.33
2022-09-03T13:42:18.311Z,1.52
2022-09-03T13:44:50.127Z,1.35
2022-09-03T13:47:19.525Z,1.13
2022-09-03T13:50:16.897Z,1.40
2022-09-03T13:52:56.942Z,1.13
2022-09-03T13:55:26.264Z,1.35
2022-09-03T13:58:01.897Z,1.55
2022-09-03T14:00:47.070Z,1.20
2022-09-03T14:03:32.301Z,1.00
2022-09-03T14:06:24.126Z,1.10
2022-09-03T14:09:09.337Z,1.20
2022-09-03T14:12:01.384Z,1.23
2022-09-03T14:15:05.248Z,1.20
2022-09-03T14:18:19.839Z,1.40
2022-09-03T14:21:03.737Z,1.25
2022-09-03T14:23:45.777Z,1.00
2022-09-03T14:26:38.478Z,1.20
2022-09-03T14:29:06.418Z,1.30
2022-09-03T14:31:45.356Z,1.10
2022-09-03T14:34:24.152Z,1.35
2022-09-03T14:37:35.994Z,1.20
2022-09-03T14:40:19.281Z,1.10
2022-09-03T14:43:24.976Z,1.13
2022-09-03T14:46:47.012Z,1.10
2022-09-03T14:49:43.120Z,1.23
2022-09-03T14:52:19.561Z,1.50
2022-09-03T14:55:08.055Z,1.40
2022-09-03T14:57:40.499Z,1.20
2022-09-03T15:00:21.389Z,1.10
2022-09-03T15:03:11.881Z,1.05
2022-09-03T15:06:13.773Z,1.30
2022-09-03T15:09:11.071Z,1.17
2022-09-03T15:11:54.316Z,1.30
2022-09-03T15:14:39.125Z,1.20
2022-09-03T15:17:28.892Z,1.23
2022-09-03T15:20:04.545Z,1.42
2022-09-03T15:23:05.328Z,8.40
2022-09-03T15:25:59.750Z,3.15
2022-09-03T15:28:39.042Z,38.33
2022-09-03T15:31:19.449Z,4.18
2022-09-03T15:34:34.653Z,2.90
2022-09-03T15:37:09.544Z,1.75
2022-09-03T15:39:40.627Z,2.13
2022-09-03T15:42:14.703Z,1.60
2022-09-03T15:44:55.409Z,1.38
2022-09-03T15:47:51.021Z,1.48
2022-09-03T15:50:36.296Z,1.58
2022-09-03T15:53:42.000Z,1.70
2022-09-03T15:56:25.388Z,1.58
2022-09-03T15:59:12.609Z,1.73
2022-09-03T16:01:54.145Z,1.38
2022-09-03T16:04:26.850Z,1.88
2022-09-03T16:07:14.521Z,9.45
2022-09-03T16:10:22.616Z,3.67
2022-09-03T16:13:07.879Z,6.85
2022-09-03T16:15:34.942Z,2.67
2022-09-03T16:18:01.731Z,19.23
2022-09-03T16:20:41.509Z,13.05
2022-09-03T16:23:16.696Z,2.50
2022-09-03T16:25:59.690Z,1.65
2022-09-03T16:28:53.375Z,1.58
2022-09-03T16:31:57.462Z,2.58
2022-09-03T16:34:47.900Z,1.35
2022-09-03T16:37:17.049Z,1.60
2022-09-03T16:39:55.257Z,1.88
2022-09-03T16:42:32.617Z,1.88
2022-09-03T16:45:34.275Z,18.77
2022-09-03T16:48:07.208Z,21.70
2022-09-03T16:50:46.158Z,3.58
2022-09-03T16:53:22.735Z,2.95
2022-09-03T16:55:57.083Z,6.53
2022-09-03T16:58:42.662Z,2.35
2022-09-03T17:01:41.484Z,5.63
2022-09-03T17:04:31.213Z,2.95
2022-09-03T17:07:19.815Z,4.00
2022-09-03T17:10:12.366Z,1.88
2022-09-03T17:12:57.756Z,2.50
2022-09-03T17:15:34.392Z,8.32
2022-09-03T17:18:43.263Z,4.20
2022-09-03T17:21:19.973Z,2.35
2022-09-03T17:24:08.189Z,1.92
2022-09-03T17:27:01.179Z,1.83
2022-09-03T17:29:32.877Z,2.10
2022-09-03T17:32:32.062Z,2.08
2022-09-03T17:35:33.847Z,2.45
2022-09-03T17:38:12.415Z,2.15
2022-09-03T17:40:44.868Z,2.60
2022-09-03T17:43:31.240Z,2.67
2022-09-03T17:46:14.000Z,2.83
2022-09-03T17:48:51.439Z,3.15
2022-09-03T17:51:47.663Z,3.10
2022-09-03T17:54:23.268Z,3.78
2022-09-03T17:57:10.530Z,3.70
2022-09-03T17:59:45.453Z,4.30
2022-09-03T18:02:14.746Z,3.40
2022-09-03T18:05:07.310Z,3.10
2022-09-03T18:08:00.970Z,2.72
2022-09-03T18:10:41.334Z,2.67
2022-09-03T18:13:52.671Z,2.55
2022-09-03T18:16:27.442Z,3.13
2022-09-03T18:19:19.980Z,4.30
2022-09-03T18:22:08.321Z,4.35
2022-09-03T18:25:05.594Z,4.50
2022-09-03T18:28:06.071Z,5.30
2022-09-03T18:30:53.068Z,3.08
2022-09-03T18:33:43.631Z,2.75
2022-09-03T18:36:29.685Z,2.95
2022-09-03T18:39:32.146Z,4.80
2022-09-03T18:43:13.212Z,3.67
2022-09-03T18:47:22.516Z,3.47
2022-09-03T18:49:53.802Z,3.33
2022-09-03T18:53:08.832Z,3.33
2022-09-03T18:56:14.318Z,3.90
2022-09-03T18:59:16.673Z,4.25
2022-09-03T19:02:02.347Z,3.78
2022-09-03T19:05:20.245Z,3.20
2022-09-03T19:08:24.891Z,4.00
2022-09-03T19:11:46.763Z,3.53
2022-09-03T19:15:04.050Z,6.57
2022-09-03T19:18:12.690Z,3.88
2022-09-03T19:21:04.401Z,8.30
2022-09-03T19:23:55.869Z,16.85
2022-09-03T19:27:24.686Z,4.38
2022-09-03T19:30:37.867Z,2.63
2022-09-03T19:33:49.236Z,2.85
2022-09-03T19:36:56.442Z,3.10
2022-09-03T19:40:00.722Z,3.10
2022-09-03T19:43:07.526Z,3.40
2022-09-03T19:46:08.199Z,3.30
2022-09-03T19:49:22.008Z,4.53
2022-09-03T19:52:19.763Z,4.72
2022-09-03T19:55:09.061Z,6.15
2022-09-03T19:57:54.380Z,6.47
2022-09-03T20:00:41.500Z,6.47
2022-09-03T20:03:26.706Z,8.43
2022-09-03T20:06:14.271Z,6.82
2022-09-03T20:08:59.124Z,7.72
2022-09-03T20:11:28.906Z,7.65
2022-09-03T20:14:14.854Z,6.40
2022-09-03T20:16:56.369Z,6.20
2022-09-03T20:19:34.930Z,6.78
2022-09-03T20:22:15.644Z,6.05
2022-09-03T20:24:58.909Z,6.40
2022-09-03T20:27:47.113Z,6.80
2022-09-03T20:30:19.539Z,5.18
2022-09-03T20:32:53.213Z,7.00
2022-09-03T20:35:38.315Z,6.35
2022-09-03T20:38:10.092Z,6.88
2022-09-03T20:40:52.805Z,6.35
2022-09-03T20:43:26.739Z,5.82
2022-09-03T20:45:53.957Z,6.20
2022-09-03T20:48:36.860Z,7.38
2022-09-03T20:51:13.090Z,6.13
2022-09-03T20:53:54.914Z,6.82
2022-09-03T20:56:24.843Z,6.50
2022-09-03T20:59:09.739Z,6.43
2022-09-03T21:01:51.022Z,7.05
2022-09-03T21:04:55.051Z,6.03
2022-09-03T21:07:27.408Z,6.70
2022-09-03T21:10:08.148Z,6.40
2022-09-03T21:12:53.032Z,5.82
2022-09-03T21:15:34.525Z,6.85
2022-09-03T21:18:19.611Z,6.88
2022-09-03T21:21:36.600Z,7.45
2022-09-03T21:24:19.620Z,8.82
2022-09-03T21:26:52.061Z,9.05
2022-09-03T21:29:34.421Z,8.05
2022-09-03T21:32:23.591Z,8.43
2022-09-03T21:34:58.316Z,8.43
2022-09-03T21:37:25.034Z,8.88
2022-09-03T21:39:53.687Z,8.23
2022-09-03T21:42:42.384Z,8.95
2022-09-03T21:45:13.579Z,9.93
2022-09-03T21:47:49.972Z,9.43
2022-09-03T21:50:21.184Z,10.43
2022-09-03T21:52:54.409Z,10.68
2022-09-03T21:55:32.924Z,11.05
2022-09-03T21:58:14.383Z,10.27
2022-09-03T22:00:40.944Z,11.25
2022-09-03T22:03:10.433Z,10.65
2022-09-03T22:05:54.485Z,11.32
2022-09-03T22:08:50.988Z,10.20
2022-09-03T22:11:29.739Z,10.45
2022-09-03T22:14:10.269Z,10.98
2022-09-03T22:16:58.757Z,10.85
2022-09-03T22:19:25.705Z,9.43
2022-09-03T22:21:59.863Z,10.40
2022-09-03T22:24:38.875Z,9.90
2022-09-03T22:27:08.321Z,10.02
2022-09-03T22:30:00.554Z,10.30
2022-09-03T22:33:00.940Z,9.82
2022-09-03T22:35:27.387Z,9.00
2022-09-03T22:38:21.350Z,9.82
2022-09-03T22:40:52.444Z,9.23
2022-09-03T22:43:19.200Z,8.85
2022-09-03T22:45:58.648Z,9.63
2022-09-03T22:48:36.132Z,9.50
2022-09-03T22:51:03.335Z,9.35
2022-09-03T22:53:48.291Z,9.23
2022-09-03T22:56:22.388Z,8.55
2022-09-03T22:59:10.939Z,8.85
2022-09-03T23:02:05.615Z,8.65
2022-09-03T23:04:41.854Z,9.23
2022-09-03T23:07:18.993Z,8.80
2022-09-03T23:09:56.037Z,8.43
2022-09-03T23:12:41.328Z,8.32
2022-09-03T23:15:14.200Z,8.82
2022-09-03T23:17:47.235Z,8.93
2022-09-03T23:20:21.143Z,9.73
2022-09-03T23:22:59.450Z,9.43
2022-09-03T23:25:51.241Z,8.35
2022-09-03T23:28:36.517Z,9.48
2022-09-03T23:31:28.519Z,8.88
2022-09-03T23:33:55.370Z,9.10
2022-09-03T23:37:10.437Z,9.35
2022-09-03T23:39:38.015Z,9.20
2022-09-03T23:42:19.828Z,9.02
2022-09-03T23:45:00.783Z,10.68
2022-09-03T23:47:54.392Z,9.73
2022-09-03T23:50:46.422Z,9.70
2022-09-03T23:53:54.409Z,11.02
2022-09-03T23:56:46.104Z,10.30
2022-09-03T23:59:28.495Z,10.90
